createdAt,value
2022-11-16T00:01:55.239Z,100.00
2022-11-16T00:04:22.244Z,100.00
2022-11-16T00:06:49.801Z,100.00
2022-11-16T00:09:22.925Z,100.00
2022-11-16T00:11:51.813Z,100.00
2022-11-16T00:14:21.051Z,100.00
2022-11-16T00:16:48.010Z,100.00
2022-11-16T00:19:14.857Z,100.00
2022-11-16T00:21:42.998Z,100.00
2022-11-16T00:24:15.090Z,100.00
2022-11-16T00:26:44.582Z,100.00
2022-11-16T00:29:20.930Z,100.00
2022-11-16T00:31:49.754Z,100.00
2022-11-16T00:34:17.277Z,100.00
2022-11-16T00:36:44.709Z,100.00
2022-11-16T00:39:16.292Z,100.00
2022-11-16T00:41:46.840Z,100.00
2022-11-16T00:44:14.487Z,100.00
2022-11-16T00:46:41.967Z,100.00
2022-11-16T00:49:08.867Z,100.00
2022-11-16T00:51:36.543Z,100.00
2022-11-16T00:54:05.231Z,100.00
2022-11-16T00:56:35.018Z,100.00
2022-11-16T00:59:01.933Z,100.00
2022-11-16T01:01:29.061Z,100.00
2022-11-16T01:03:55.959Z,100.00
2022-11-16T01:06:23.621Z,100.00
2022-11-16T01:08:51.106Z,100.00
2022-11-16T01:11:36.904Z,100.00
2022-11-16T01:14:06.515Z,100.00
2022-11-16T01:16:33.863Z,100.00
2022-11-16T01:19:01.041Z,100.00
2022-11-16T01:21:28.559Z,100.00
2022-11-16T01:23:59.201Z,100.00
2022-11-16T01:26:26.378Z,100.00
2022-11-16T01:28:53.356Z,100.00
2022-11-16T01:31:21.317Z,100.00
2022-11-16T01:33:49.825Z,100.00
2022-11-16T01:36:22.202Z,100.00
2022-11-16T01:38:50.704Z,100.00
2022-11-16T01:41:24.098Z,100.00
2022-11-16T01:44:32.273Z,100.00
2022-11-16T01:47:12.430Z,100.00
2022-11-16T01:49:47.742Z,100.00
2022-11-16T01:52:22.909Z,100.00
2022-11-16T01:54:52.984Z,100.00
2022-11-16T01:57:27.958Z,100.00
2022-11-16T02:00:06.589Z,100.00
2022-11-16T02:02:57.112Z,100.00
2022-11-16T02:06:22.855Z,100.00
2022-11-16T02:09:48.166Z,100.00
2022-11-16T02:12:21.425Z,100.00
2022-11-16T02:15:04.126Z,100.00
2022-11-16T02:18:02.517Z,100.00
2022-11-16T02:20:55.086Z,100.00
2022-11-16T02:23:49.400Z,100.00
2022-11-16T02:26:56.120Z,100.00
2022-11-16T02:29:35.689Z,100.00
2022-11-16T02:32:25.396Z,100.00
2022-11-16T02:35:00.494Z,100.00
2022-11-16T02:37:33.451Z,100.00
2022-11-16T02:40:04.939Z,100.00
2022-11-16T02:42:58.293Z,100.00
2022-11-16T02:45:31.499Z,100.00
2022-11-16T02:48:08.673Z,100.00
2022-11-16T02:50:37.090Z,100.00
2022-11-16T02:53:04.256Z,100.00
2022-11-16T02:55:36.293Z,100.00
2022-11-16T02:58:09.629Z,100.00
2022-11-16T03:00:46.897Z,100.00
2022-11-16T03:03:42.365Z,100.00
2022-11-16T03:06:15.182Z,100.00
2022-11-16T03:09:05.948Z,100.00
2022-11-16T03:11:57.607Z,100.00
2022-11-16T03:14:30.938Z,100.00
2022-11-16T03:16:59.179Z,100.00
2022-11-16T03:19:36.656Z,100.00
2022-11-16T03:22:12.853Z,100.00
2022-11-16T03:24:41.094Z,100.00
2022-11-16T03:27:25.698Z,100.00
2022-11-16T03:29:58.728Z,100.00
2022-11-16T03:32:33.754Z,100.00
2022-11-16T03:35:13.100Z,100.00
2022-11-16T03:37:41.918Z,100.00
2022-11-16T03:40:12.834Z,100.00
2022-11-16T03:42:42.411Z,100.00
2022-11-16T03:45:11.281Z,100.00
2022-11-16T03:47:38.138Z,100.00
2022-11-16T03:50:06.462Z,100.00
2022-11-16T03:52:34.639Z,100.00
2022-11-16T03:55:01.786Z,100.00
2022-11-16T03:57:29.246Z,100.00
2022-11-16T03:59:59.051Z,100.00
2022-11-16T04:02:26.884Z,100.00
2022-11-16T04:05:14.961Z,100.00
2022-11-16T04:08:02.465Z,100.00
2022-11-16T04:10:48.272Z,100.00
2022-11-16T04:13:36.830Z,100.00
2022-11-16T04:16:22.387Z,100.00
2022-11-16T04:19:07.968Z,100.00
2022-11-16T04:21:59.480Z,100.00
2022-11-16T04:24:37.110Z,100.00
2022-11-16T04:27:27.209Z,100.00
2022-11-16T04:29:57.438Z,100.00
2022-11-16T04:32:43.951Z,100.00
2022-11-16T04:35:29.546Z,100.00
2022-11-16T04:37:57.866Z,100.00
2022-11-16T04:40:31.939Z,100.00
2022-11-16T04:43:03.979Z,100.00
2022-11-16T04:45:56.333Z,100.00
2022-11-16T04:48:27.235Z,100.00
2022-11-16T04:50:55.240Z,100.00
2022-11-16T04:53:27.097Z,100.00
2022-11-16T04:56:12.555Z,100.00
2022-11-16T04:58:40.751Z,100.00
2022-11-16T05:01:09.294Z,100.00
2022-11-16T05:03:36.281Z,100.00
2022-11-16T05:06:03.580Z,100.00
2022-11-16T05:08:31.116Z,100.00
2022-11-16T05:10:59.539Z,100.00
2022-11-16T05:13:28.265Z,100.00
2022-11-16T05:15:55.120Z,100.00
2022-11-16T05:18:22.824Z,100.00
2022-11-16T05:21:02.629Z,100.00
2022-11-16T05:23:55.429Z,100.00
2022-11-16T05:26:27.269Z,100.00
2022-11-16T05:28:54.973Z,100.00
2022-11-16T05:31:21.795Z,100.00
2022-11-16T05:33:49.342Z,100.00
2022-11-16T05:36:16.781Z,100.00
2022-11-16T05:38:44.089Z,100.00
2022-11-16T05:41:11.922Z,100.00
2022-11-16T05:43:39.081Z,100.00
2022-11-16T05:46:12.386Z,100.00
2022-11-16T05:48:40.705Z,100.00
2022-11-16T05:51:07.648Z,100.00
2022-11-16T05:53:35.096Z,100.00
2022-11-16T05:56:02.491Z,100.00
2022-11-16T05:58:32.793Z,100.00
2022-11-16T06:01:00.790Z,100.00
2022-11-16T06:03:31.578Z,100.00
2022-11-16T06:05:59.752Z,100.00
2022-11-16T06:08:29.027Z,100.00
2022-11-16T06:11:03.055Z,100.00
2022-11-16T06:13:31.205Z,100.00
2022-11-16T06:16:01.330Z,100.00
2022-11-16T06:18:30.010Z,100.00
2022-11-16T06:20:57.927Z,100.00
2022-11-16T06:23:25.724Z,100.00
2022-11-16T06:25:57.415Z,100.00
2022-11-16T06:28:27.602Z,100.00
2022-11-16T06:30:55.193Z,100.00
2022-11-16T06:33:30.807Z,100.00
2022-11-16T06:36:02.613Z,100.00
2022-11-16T06:38:29.632Z,100.00
2022-11-16T06:40:59.074Z,100.00
2022-11-16T06:43:28.364Z,100.00
2022-11-16T06:45:58.248Z,100.00
2022-11-16T06:48:25.696Z,100.00
2022-11-16T06:50:53.758Z,100.00
2022-11-16T06:53:27.536Z,100.00
2022-11-16T06:56:00.354Z,100.00
2022-11-16T06:58:29.654Z,100.00
2022-11-16T07:00:56.500Z,100.00
2022-11-16T07:03:23.749Z,100.00
2022-11-16T07:05:50.866Z,100.00
2022-11-16T07:08:18.766Z,100.00
2022-11-16T07:10:46.026Z,100.00
2022-11-16T07:13:13.013Z,100.00
2022-11-16T07:15:39.998Z,100.00
2022-11-16T07:18:08.486Z,100.00
2022-11-16T07:20:38.836Z,100.00
2022-11-16T07:23:07.137Z,100.00
2022-11-16T07:25:38.233Z,99.90
2022-11-16T07:28:06.408Z,96.92
2022-11-16T07:30:34.285Z,97.58
2022-11-16T07:33:07.010Z,95.64
2022-11-16T07:36:06.713Z,96.52
2022-11-16T07:38:34.120Z,97.06
2022-11-16T07:41:01.735Z,96.20
2022-11-16T07:43:37.584Z,95.91
2022-11-16T07:48:59.346Z,93.21
2022-11-16T07:51:55.329Z,94.10
2022-11-16T07:54:45.083Z,91.42
2022-11-16T07:57:12.945Z,90.25
2022-11-16T07:59:41.515Z,91.48
2022-11-16T08:02:11.080Z,91.91
2022-11-16T08:04:40.111Z,90.00
2022-11-16T08:07:08.747Z,91.01
2022-11-16T08:09:42.109Z,90.10
2022-11-16T08:12:13.350Z,88.65
2022-11-16T08:14:40.358Z,87.74
2022-11-16T08:17:08.461Z,88.46
2022-11-16T08:19:36.838Z,88.27
2022-11-16T08:22:04.021Z,87.42
2022-11-16T08:24:33.477Z,87.41
2022-11-16T08:27:00.398Z,87.72
2022-11-16T08:29:27.479Z,86.90
2022-11-16T08:31:57.261Z,86.97
2022-11-16T08:34:24.526Z,86.70
2022-11-16T08:36:56.389Z,87.35
2022-11-16T08:39:29.593Z,87.27
2022-11-16T08:41:56.727Z,86.20
2022-11-16T08:44:23.698Z,85.83
2022-11-16T08:46:53.358Z,86.39
2022-11-16T08:49:49.736Z,85.88
2022-11-16T08:52:19.007Z,85.38
2022-11-16T08:54:46.372Z,84.40
2022-11-16T08:57:13.671Z,84.15
2022-11-16T08:59:42.514Z,82.60
2022-11-16T09:02:13.128Z,82.42
2022-11-16T09:04:40.080Z,81.80
2022-11-16T09:07:06.945Z,82.39
2022-11-16T09:09:33.776Z,82.18
2022-11-16T09:12:00.646Z,81.16
2022-11-16T09:14:29.107Z,81.56
2022-11-16T09:16:56.004Z,81.59
2022-11-16T09:19:22.886Z,81.06
2022-11-16T09:21:50.495Z,80.92
2022-11-16T09:24:17.736Z,81.02
2022-11-16T09:26:44.557Z,80.93
2022-11-16T09:29:14.259Z,80.73
2022-11-16T09:31:41.933Z,79.61
2022-11-16T09:34:08.823Z,79.19
2022-11-16T09:36:35.801Z,78.36
2022-11-16T09:39:29.599Z,78.09
2022-11-16T09:41:56.690Z,75.99
2022-11-16T09:44:41.845Z,77.79
2022-11-16T09:47:24.596Z,77.00
2022-11-16T09:50:03.022Z,77.32
2022-11-16T09:52:33.999Z,77.57
2022-11-16T09:55:16.851Z,78.04
2022-11-16T09:57:45.286Z,78.10
2022-11-16T10:00:18.079Z,77.15
2022-11-16T10:02:48.744Z,77.09
2022-11-16T10:05:22.631Z,76.92
2022-11-16T10:07:55.034Z,77.24
2022-11-16T10:10:34.963Z,77.83
2022-11-16T10:13:22.246Z,77.39
2022-11-16T10:16:15.483Z,76.44
2022-11-16T10:18:44.984Z,77.33
2022-11-16T10:21:11.805Z,77.06
2022-11-16T10:23:57.047Z,75.57
2022-11-16T10:26:29.715Z,76.10
2022-11-16T10:29:05.410Z,76.44
2022-11-16T10:31:51.980Z,76.78
2022-11-16T10:34:24.581Z,76.98
2022-11-16T10:36:57.870Z,75.57
2022-11-16T10:39:27.546Z,75.95
2022-11-16T10:41:59.364Z,76.16
2022-11-16T10:44:57.735Z,75.32
2022-11-16T10:47:35.898Z,75.01
2022-11-16T10:50:18.001Z,74.76
2022-11-16T10:52:44.872Z,73.19
2022-11-16T10:55:15.857Z,74.80
2022-11-16T10:58:02.006Z,74.11
2022-11-16T11:00:36.484Z,73.09
2022-11-16T11:03:03.563Z,73.63
2022-11-16T11:05:31.155Z,73.57
2022-11-16T11:08:07.412Z,72.55
2022-11-16T11:10:37.717Z,71.92
2022-11-16T11:13:10.560Z,71.30
2022-11-16T11:15:38.756Z,71.03
2022-11-16T11:18:23.595Z,69.04
2022-11-16T11:20:55.238Z,70.25
2022-11-16T11:23:25.119Z,70.47
2022-11-16T11:26:00.391Z,71.50
2022-11-16T11:28:33.723Z,69.24
2022-11-16T11:31:12.236Z,66.66
2022-11-16T11:33:48.385Z,66.02
2022-11-16T11:36:35.737Z,66.12
2022-11-16T11:39:05.648Z,67.43
2022-11-16T11:41:38.058Z,67.84
2022-11-16T11:44:14.000Z,66.46
2022-11-16T11:47:35.116Z,68.00
2022-11-16T11:49:39.959Z,65.03
2022-11-16T11:52:17.338Z,65.63
2022-11-16T11:54:49.521Z,67.32
2022-11-16T11:57:23.365Z,68.21
2022-11-16T11:59:53.110Z,69.08
2022-11-16T12:02:31.985Z,68.41
2022-11-16T12:05:23.434Z,68.07
2022-11-16T12:08:06.483Z,67.82
2022-11-16T12:10:51.140Z,67.70
2022-11-16T12:13:17.929Z,68.70
2022-11-16T12:16:12.654Z,69.11
2022-11-16T12:18:53.895Z,69.33
2022-11-16T12:21:53.373Z,68.80
2022-11-16T12:24:37.651Z,68.23
2022-11-16T12:27:29.139Z,68.10
2022-11-16T12:30:11.077Z,71.30
2022-11-16T12:33:01.804Z,67.59
2022-11-16T12:35:59.902Z,69.60
2022-11-16T12:38:35.998Z,68.73
2022-11-16T12:41:52.560Z,68.42
2022-11-16T12:44:36.683Z,69.13
2022-11-16T12:47:31.817Z,70.94
2022-11-16T12:50:31.568Z,70.00
2022-11-16T12:53:13.862Z,70.14
2022-11-16T12:55:43.948Z,70.77
2022-11-16T12:58:20.923Z,71.27
2022-11-16T13:00:51.787Z,72.12
2022-11-16T13:03:38.336Z,70.84
2022-11-16T13:06:09.888Z,70.73
2022-11-16T13:08:40.881Z,69.34
2022-11-16T13:11:29.213Z,69.11
2022-11-16T13:14:00.518Z,70.40
2022-11-16T13:16:29.115Z,71.32
2022-11-16T13:18:57.449Z,70.83
2022-11-16T13:21:52.383Z,70.39
2022-11-16T13:24:38.216Z,71.65
2022-11-16T13:27:27.394Z,72.35
2022-11-16T13:30:06.504Z,71.72
2022-11-16T13:32:34.907Z,71.50
2022-11-16T13:35:05.572Z,72.27
2022-11-16T13:37:46.249Z,71.94
2022-11-16T13:40:32.153Z,72.08
2022-11-16T13:43:11.076Z,72.11
2022-11-16T13:45:49.764Z,72.54
2022-11-16T13:48:25.113Z,72.70
2022-11-16T13:50:58.603Z,72.81
2022-11-16T13:56:28.962Z,73.58
2022-11-16T13:58:58.359Z,73.69
2022-11-16T14:01:27.616Z,74.26
2022-11-16T14:04:35.523Z,74.53
2022-11-16T14:07:03.058Z,75.31
2022-11-16T14:09:59.400Z,75.79
2022-11-16T14:12:38.530Z,75.88
2022-11-16T14:15:19.199Z,76.12
2022-11-16T14:18:01.258Z,76.40
2022-11-16T14:20:30.826Z,76.73
2022-11-16T14:23:07.284Z,77.03
2022-11-16T14:25:53.119Z,77.48
2022-11-16T14:29:01.126Z,78.06
2022-11-16T14:31:49.922Z,78.15
2022-11-16T14:34:41.771Z,78.34
2022-11-16T14:37:30.091Z,78.29
2022-11-16T14:40:18.562Z,78.49
2022-11-16T14:43:15.515Z,78.55
2022-11-16T14:45:41.443Z,78.30
2022-11-16T14:48:20.096Z,78.83
2022-11-16T14:51:05.921Z,78.98
2022-11-16T14:53:37.100Z,78.79
2022-11-16T14:56:13.278Z,79.10
2022-11-16T14:58:50.061Z,79.59
2022-11-16T15:01:18.528Z,79.41
2022-11-16T15:04:09.391Z,79.84
2022-11-16T15:06:42.341Z,80.24
2022-11-16T15:09:17.373Z,80.88
2022-11-16T15:12:06.947Z,81.34
2022-11-16T15:14:39.586Z,81.47
2022-11-16T15:17:07.480Z,82.21
2022-11-16T15:19:34.497Z,82.55
2022-11-16T15:22:03.392Z,83.15
2022-11-16T15:24:33.434Z,83.96
2022-11-16T15:27:06.599Z,84.30
2022-11-16T15:29:36.165Z,83.89
2022-11-16T15:32:03.460Z,84.38
2022-11-16T15:34:31.473Z,84.71
2022-11-16T15:36:58.385Z,84.38
2022-11-16T15:39:32.535Z,84.90
2022-11-16T15:42:03.796Z,84.93
2022-11-16T15:44:33.948Z,85.10
2022-11-16T15:47:03.148Z,85.74
2022-11-16T15:49:35.812Z,86.81
2022-11-16T15:52:03.256Z,86.65
2022-11-16T15:54:51.490Z,86.85
2022-11-16T15:57:21.028Z,86.72
2022-11-16T15:59:50.645Z,86.81
2022-11-16T16:02:29.737Z,86.90
2022-11-16T16:04:56.941Z,85.89
2022-11-16T16:07:37.102Z,84.99
2022-11-16T16:10:19.292Z,84.94
2022-11-16T16:12:54.828Z,85.03
2022-11-16T16:15:26.681Z,85.47
2022-11-16T16:17:54.659Z,85.77
2022-11-16T16:20:24.703Z,86.14
2022-11-16T16:22:52.354Z,87.04
2022-11-16T16:25:34.242Z,87.48
2022-11-16T16:28:01.384Z,88.08
2022-11-16T16:30:30.540Z,88.07
2022-11-16T16:32:57.426Z,88.29
2022-11-16T16:35:25.797Z,89.31
2022-11-16T16:38:01.047Z,89.17
2022-11-16T16:40:29.238Z,89.46
2022-11-16T16:42:56.990Z,89.59
2022-11-16T16:45:36.017Z,89.88
2022-11-16T16:48:03.862Z,90.02
2022-11-16T16:50:30.782Z,89.50
2022-11-16T16:52:58.656Z,89.98
2022-11-16T16:55:26.059Z,89.24
2022-11-16T16:57:58.265Z,89.39
2022-11-16T17:00:25.466Z,89.45
2022-11-16T17:02:52.597Z,88.73
2022-11-16T17:05:20.142Z,88.63
2022-11-16T17:07:47.010Z,88.50
2022-11-16T17:10:13.918Z,88.71
2022-11-16T17:12:40.773Z,88.82
2022-11-16T17:15:08.437Z,88.66
2022-11-16T17:17:37.329Z,88.31
2022-11-16T17:20:06.178Z,88.94
2022-11-16T17:22:34.397Z,88.10
2022-11-16T17:25:01.195Z,88.78
2022-11-16T17:27:28.093Z,88.53
2022-11-16T17:29:54.885Z,88.69
2022-11-16T17:32:21.807Z,88.94
2022-11-16T17:34:48.691Z,89.05
2022-11-16T17:37:15.989Z,89.73
2022-11-16T17:39:43.081Z,89.40
2022-11-16T17:42:09.963Z,89.55
2022-11-16T17:44:36.885Z,89.63
2022-11-16T17:47:03.812Z,89.85
2022-11-16T17:49:31.123Z,89.51
2022-11-16T17:51:58.484Z,89.95
2022-11-16T17:54:25.449Z,90.22
2022-11-16T17:56:52.873Z,89.53
2022-11-16T17:59:20.625Z,90.47
2022-11-16T18:01:49.903Z,89.70
2022-11-16T18:04:16.746Z,90.06
2022-11-16T18:06:43.873Z,90.15
2022-11-16T18:09:11.241Z,90.81
2022-11-16T18:11:39.806Z,90.42
2022-11-16T18:14:06.740Z,89.88
2022-11-16T18:16:33.688Z,90.19
2022-11-16T18:19:03.315Z,90.35
2022-11-16T18:21:31.364Z,90.68
2022-11-16T18:24:01.498Z,90.23
2022-11-16T18:26:28.361Z,90.37
2022-11-16T18:28:56.065Z,91.79
2022-11-16T18:31:24.450Z,91.47
2022-11-16T18:33:52.512Z,91.66
2022-11-16T18:36:21.382Z,92.22
2022-11-16T18:38:48.675Z,91.71
2022-11-16T18:41:21.365Z,91.14
2022-11-16T18:43:51.411Z,91.09
2022-11-16T18:46:24.038Z,90.60
2022-11-16T18:48:51.858Z,90.77
2022-11-16T18:51:20.125Z,90.66
2022-11-16T18:53:47.358Z,90.54
2022-11-16T18:56:14.994Z,90.81
2022-11-16T18:58:50.486Z,90.73
2022-11-16T19:01:20.541Z,90.52
2022-11-16T19:03:48.269Z,90.58
2022-11-16T19:06:17.213Z,90.72
2022-11-16T19:08:49.071Z,90.54
2022-11-16T19:11:21.578Z,90.75
2022-11-16T19:13:53.670Z,91.02
2022-11-16T19:16:20.856Z,90.88
2022-11-16T19:18:48.057Z,91.14
2022-11-16T19:21:20.039Z,91.47
2022-11-16T19:23:52.841Z,90.37
2022-11-16T19:26:22.910Z,90.18
2022-11-16T19:28:51.091Z,90.76
2022-11-16T19:31:30.724Z,90.05
2022-11-16T19:34:02.888Z,90.23
2022-11-16T19:36:31.714Z,89.93
2022-11-16T19:38:58.777Z,90.25
2022-11-16T19:41:27.042Z,90.25
2022-11-16T19:43:59.955Z,90.70
2022-11-16T19:46:32.094Z,90.35
2022-11-16T19:48:59.610Z,90.85
2022-11-16T19:51:34.038Z,91.38
2022-11-16T19:54:02.457Z,91.73
2022-11-16T19:56:29.450Z,91.89
2022-11-16T19:58:56.718Z,91.68
2022-11-16T20:01:27.930Z,92.62
2022-11-16T20:03:58.896Z,92.77
2022-11-16T20:06:34.252Z,92.48
2022-11-16T20:09:08.841Z,92.55
2022-11-16T20:11:38.064Z,92.01
2022-11-16T20:14:07.189Z,92.29
2022-11-16T20:16:39.083Z,92.30
2022-11-16T20:19:09.100Z,92.37
2022-11-16T20:21:41.303Z,91.75
2022-11-16T20:24:12.384Z,91.50
2022-11-16T20:26:45.453Z,91.37
2022-11-16T20:29:13.944Z,91.53
2022-11-16T20:31:43.189Z,92.19
2022-11-16T20:34:16.330Z,91.97
2022-11-16T20:36:46.025Z,91.84
2022-11-16T20:39:15.370Z,92.44
2022-11-16T20:41:44.006Z,93.25
2022-11-16T20:44:16.503Z,94.36
2022-11-16T20:46:45.227Z,94.75
2022-11-16T20:49:13.028Z,96.35
2022-11-16T20:51:40.286Z,96.44
2022-11-16T20:54:07.319Z,96.37
2022-11-16T20:56:34.823Z,96.78
2022-11-16T20:59:01.889Z,97.39
2022-11-16T21:01:31.963Z,95.36
2022-11-16T21:04:01.519Z,97.23
2022-11-16T21:06:29.475Z,96.75
2022-11-16T21:08:57.365Z,95.64
2022-11-16T21:11:27.249Z,97.23
2022-11-16T21:14:13.687Z,95.25
2022-11-16T21:16:41.378Z,97.28
2022-11-16T21:19:08.380Z,97.52
2022-11-16T21:21:35.476Z,98.56
2022-11-16T21:24:02.519Z,97.67
2022-11-16T21:26:32.121Z,97.65
2022-11-16T21:29:00.517Z,97.75
2022-11-16T21:31:30.086Z,97.54
2022-11-16T21:33:58.572Z,98.58
2022-11-16T21:36:27.033Z,97.76
2022-11-16T21:38:55.047Z,99.86
2022-11-16T21:41:23.673Z,99.75
2022-11-16T21:43:51.035Z,98.45
2022-11-16T21:46:20.377Z,99.32
2022-11-16T21:48:48.324Z,99.37
2022-11-16T21:51:17.987Z,99.05
2022-11-16T21:53:45.213Z,99.93
2022-11-16T21:56:14.258Z,100.00
2022-11-16T21:58:42.082Z,100.00
2022-11-16T22:01:09.952Z,100.00
2022-11-16T22:03:37.468Z,100.00
2022-11-16T22:06:25.482Z,100.00
2022-11-16T22:08:53.404Z,100.00
2022-11-16T22:11:22.349Z,100.00
2022-11-16T22:13:50.171Z,100.00
2022-11-16T22:16:19.418Z,100.00
2022-11-16T22:18:46.260Z,100.00
2022-11-16T22:21:13.274Z,100.00
2022-11-16T22:23:40.456Z,100.00
2022-11-16T22:26:12.584Z,100.00
2022-11-16T22:28:39.782Z,100.00
2022-11-16T22:31:11.759Z,100.00
2022-11-16T22:33:39.308Z,100.00
2022-11-16T22:36:10.051Z,100.00
2022-11-16T22:38:37.306Z,100.00
2022-11-16T22:41:04.508Z,100.00
2022-11-16T22:43:31.986Z,100.00
2022-11-16T22:46:00.387Z,100.00
2022-11-16T22:48:34.918Z,100.00
2022-11-16T22:51:22.509Z,100.00
2022-11-16T22:53:54.779Z,100.00
2022-11-16T22:56:22.609Z,100.00
2022-11-16T22:58:49.688Z,100.00
2022-11-16T23:01:16.944Z,100.00
2022-11-16T23:03:43.964Z,100.00
2022-11-16T23:06:10.944Z,100.00
2022-11-16T23:08:40.046Z,100.00
2022-11-16T23:11:30.776Z,100.00
2022-11-16T23:14:16.624Z,100.00
2022-11-16T23:16:44.215Z,100.00
2022-11-16T23:19:31.805Z,100.00
2022-11-16T23:22:17.550Z,100.00
2022-11-16T23:25:03.459Z,100.00
2022-11-16T23:27:51.888Z,100.00
2022-11-16T23:30:18.907Z,100.00
2022-11-16T23:32:45.967Z,100.00
2022-11-16T23:35:13.848Z,100.00
2022-11-16T23:37:56.583Z,100.00
2022-11-16T23:40:32.319Z,100.00
2022-11-16T23:43:17.690Z,100.00
2022-11-16T23:45:51.130Z,100.00
2022-11-16T23:48:19.722Z,100.00
2022-11-16T23:50:47.048Z,100.00
2022-11-16T23:53:14.520Z,100.00
2022-11-16T23:55:41.941Z,100.00
2022-11-16T23:58:14.742Z,100.00
